createdAt,value
2023-02-14T08:05:57.345Z,100345.22
2023-02-14T08:08:30.684Z,100338.50
2023-02-14T08:10:59.138Z,100337.41
2023-02-14T08:13:26.713Z,100335.28
2023-02-14T08:16:06.392Z,100339.19
2023-02-14T08:18:41.953Z,100334.88
2023-02-14T08:21:11.510Z,100334.34
2023-02-14T08:23:39.222Z,100329.72
2023-02-14T08:26:06.634Z,100332.69
2023-02-14T08:28:34.929Z,100333.00
2023-02-14T08:31:04.601Z,100334.38
2023-02-14T08:33:32.134Z,100327.56
2023-02-14T08:36:00.211Z,100319.66
2023-02-14T08:38:27.540Z,100322.38
2023-02-14T08:41:00.070Z,100329.50
2023-02-14T08:43:27.521Z,100321.59
2023-02-14T08:45:54.908Z,100321.28
2023-02-14T08:48:23.593Z,100333.03
2023-02-14T08:50:50.966Z,100328.94
2023-02-14T08:53:18.470Z,100338.75
2023-02-14T08:55:45.822Z,100339.00
2023-02-14T08:58:13.188Z,100330.06
2023-02-14T09:00:41.034Z,100319.06
2023-02-14T09:03:08.714Z,100332.41
2023-02-14T09:05:36.054Z,100316.72
2023-02-14T09:08:03.979Z,100317.75
2023-02-14T09:10:31.572Z,100322.69
2023-02-14T09:12:58.865Z,100322.50
2023-02-14T09:15:26.183Z,100316.41
2023-02-14T09:17:53.580Z,100323.94
2023-02-14T09:20:21.212Z,100315.84
2023-02-14T09:22:48.960Z,100319.78
2023-02-14T09:25:17.508Z,100317.34
2023-02-14T09:27:44.826Z,100315.88
2023-02-14T09:30:13.520Z,100312.88
2023-02-14T09:32:40.873Z,100307.00
2023-02-14T09:35:08.510Z,100322.25
2023-02-14T09:37:54.339Z,100321.25
2023-02-14T09:40:21.988Z,100324.72
2023-02-14T09:43:49.009Z,100316.34
2023-02-14T09:46:18.834Z,100313.94
2023-02-14T09:48:49.482Z,100305.00
2023-02-14T09:51:27.760Z,100316.69
2023-02-14T09:54:16.058Z,100311.50
2023-02-14T09:57:25.283Z,100314.03
2023-02-14T10:00:17.264Z,100317.41
2023-02-14T10:03:12.090Z,100310.75
2023-02-14T10:05:59.771Z,100314.19
2023-02-14T10:09:26.652Z,100299.78
2023-02-14T10:11:57.877Z,100307.09
2023-02-14T10:14:36.510Z,100298.44
2023-02-14T10:17:23.369Z,100295.41
2023-02-14T10:20:01.163Z,100301.22
2023-02-14T10:22:45.249Z,100289.00
2023-02-14T10:25:32.460Z,100291.00
2023-02-14T10:28:02.620Z,100295.84
2023-02-14T10:30:44.042Z,100296.69
2023-02-14T10:33:22.801Z,100295.66
2023-02-14T10:36:33.150Z,100291.25
2023-02-14T10:39:50.249Z,100286.41
2023-02-14T10:43:15.351Z,100281.19
2023-02-14T10:46:10.451Z,100279.41
2023-02-14T10:49:58.239Z,100269.66
2023-02-14T10:53:37.405Z,100265.16
2023-02-14T10:57:04.194Z,100261.50
2023-02-14T11:00:06.771Z,100255.81
2023-02-14T11:02:46.895Z,100254.84
2023-02-14T11:05:47.588Z,100250.16
2023-02-14T11:08:40.312Z,100244.41
2023-02-14T11:11:53.455Z,100234.66
2023-02-14T11:14:25.076Z,100235.94
2023-02-14T11:16:54.773Z,100236.28
2023-02-14T11:19:24.942Z,100232.84
2023-02-14T11:21:56.717Z,100230.88
2023-02-14T11:24:35.793Z,100234.56
2023-02-14T11:27:19.363Z,100225.00
2023-02-14T11:29:52.366Z,100215.66
2023-02-14T11:32:31.174Z,100214.88
2023-02-14T11:35:13.850Z,100206.03
2023-02-14T11:37:57.264Z,100195.69
2023-02-14T11:40:39.702Z,100202.47
2023-02-14T11:43:15.683Z,100197.25
2023-02-14T11:45:47.717Z,100196.06
2023-02-14T11:48:37.812Z,100175.66
2023-02-14T11:51:15.693Z,100188.41
2023-02-14T11:54:00.632Z,100179.09
2023-02-14T11:57:13.813Z,100184.66
2023-02-14T11:59:57.012Z,100178.81
2023-02-14T12:02:48.979Z,100179.97
2023-02-14T12:05:48.702Z,100167.72
2023-02-14T12:08:23.909Z,100166.31
2023-02-14T12:11:23.878Z,100160.66
2023-02-14T12:13:58.348Z,100153.31
2023-02-14T12:17:02.982Z,100148.31
2023-02-14T12:20:16.666Z,100143.91
2023-02-14T12:23:30.032Z,100145.28
2023-02-14T12:26:14.016Z,100139.28
2023-02-14T12:28:54.533Z,100130.59
2023-02-14T12:31:22.058Z,100129.59
2023-02-14T12:33:50.584Z,100136.44
2023-02-14T12:37:02.131Z,100130.84
2023-02-14T12:40:16.164Z,100119.56
2023-02-14T12:43:51.494Z,100123.41
2023-02-14T12:47:14.938Z,100116.22
2023-02-14T12:50:16.656Z,100112.03
2023-02-14T12:53:40.049Z,100116.00
2023-02-14T12:56:50.165Z,100109.16
2023-02-14T13:00:00.047Z,100106.41
2023-02-14T13:03:15.528Z,100109.38
2023-02-14T13:06:03.535Z,100096.63
2023-02-14T13:09:13.492Z,100085.44
2023-02-14T13:12:13.922Z,100086.53
2023-02-14T13:15:35.644Z,100070.66
2023-02-14T13:18:57.921Z,100082.78
2023-02-14T13:21:35.521Z,100065.00
2023-02-14T13:24:38.167Z,100072.69
2023-02-14T13:27:16.160Z,100062.66
2023-02-14T13:29:59.792Z,100052.06
2023-02-14T13:32:37.624Z,100054.59
2023-02-14T13:35:07.777Z,100056.78
2023-02-14T13:37:36.904Z,100045.22
2023-02-14T13:40:20.487Z,100046.94
2023-02-14T13:42:50.595Z,100043.84
2023-02-14T13:45:34.845Z,100035.16
2023-02-14T13:48:28.528Z,100025.88
2023-02-14T13:51:09.019Z,100033.81
2023-02-14T13:53:48.972Z,100024.91
2023-02-14T13:56:16.059Z,100024.00
2023-02-14T13:59:06.408Z,100025.69
2023-02-14T14:01:50.632Z,100021.91
2023-02-14T14:04:44.241Z,100019.53
2023-02-14T14:07:30.748Z,100018.88
2023-02-14T14:10:02.109Z,100020.47
2023-02-14T14:12:29.803Z,100019.53
2023-02-14T14:15:05.853Z,100014.34
2023-02-14T14:17:50.582Z,100010.19
2023-02-14T14:20:20.808Z,100024.84
2023-02-14T14:22:58.823Z,100009.78
2023-02-14T14:25:43.708Z,100010.94
2023-02-14T14:28:18.634Z,100014.94
2023-02-14T14:30:46.316Z,100006.59
2023-02-14T14:33:33.987Z,100007.38
2023-02-14T14:36:11.197Z,100002.53
2023-02-14T14:38:54.240Z,99996.03
2023-02-14T14:41:29.823Z,100003.72
2023-02-14T14:43:59.804Z,100004.84
2023-02-14T14:46:27.894Z,100000.34
2023-02-14T14:48:57.089Z,99989.81
2023-02-14T14:51:35.882Z,99992.13
2023-02-14T14:54:12.756Z,99991.88
2023-02-14T14:57:02.806Z,99994.63
2023-02-14T14:59:36.249Z,99998.97
2023-02-14T15:02:27.988Z,99993.94
2023-02-14T15:04:55.338Z,99991.94
2023-02-14T15:07:36.440Z,99984.25
2023-02-14T15:10:24.521Z,99986.44
2023-02-14T15:13:13.266Z,99982.19
2023-02-14T15:15:41.188Z,99990.25
2023-02-14T15:18:11.744Z,99983.94
2023-02-14T15:20:40.663Z,99989.00
2023-02-14T15:23:17.304Z,99993.88
2023-02-14T15:25:47.349Z,99995.16
2023-02-14T15:28:35.712Z,99981.69
2023-02-14T15:31:07.012Z,99987.72
2023-02-14T15:33:35.733Z,99987.22
2023-02-14T15:36:15.447Z,99988.03
2023-02-14T15:38:43.754Z,99991.78
2023-02-14T15:41:13.926Z,99986.06
2023-02-14T15:43:41.496Z,99986.06
2023-02-14T15:46:29.367Z,99978.78
2023-02-14T15:49:01.345Z,99981.03
2023-02-14T15:51:36.400Z,99983.81
2023-02-14T15:54:31.911Z,99979.75
2023-02-14T15:56:59.801Z,99980.84
2023-02-14T15:59:33.477Z,99982.84
2023-02-14T16:02:37.845Z,99974.97
2023-02-14T16:05:27.274Z,99978.16
2023-02-14T16:08:35.896Z,99986.06
2023-02-14T16:11:31.748Z,99977.19
2023-02-14T16:14:19.382Z,99986.22
2023-02-14T16:17:13.427Z,99987.03
2023-02-14T16:19:45.114Z,99971.16
2023-02-14T16:22:32.111Z,99970.53
2023-02-14T16:25:00.567Z,99975.03
2023-02-14T16:27:28.070Z,99974.13
2023-02-14T16:29:55.460Z,99971.75
2023-02-14T16:32:24.632Z,99971.56
2023-02-14T16:34:52.153Z,99969.13
2023-02-14T16:37:47.625Z,99977.22
2023-02-14T16:40:16.856Z,99967.16
2023-02-14T16:42:44.327Z,99974.41
2023-02-14T16:45:18.877Z,99973.28
2023-02-14T16:47:48.328Z,99971.03
2023-02-14T16:50:17.694Z,99973.28
2023-02-14T16:52:49.911Z,99971.03
2023-02-14T16:55:20.148Z,99978.38
2023-02-14T16:57:50.749Z,99983.28
2023-02-14T17:00:18.276Z,99992.72
2023-02-14T17:02:45.617Z,99989.94
2023-02-14T17:05:13.534Z,99987.97
2023-02-14T17:07:43.621Z,99993.09
2023-02-14T17:10:19.493Z,100001.16
2023-02-14T17:12:48.724Z,99996.06
2023-02-14T17:15:21.532Z,99997.97
2023-02-14T17:17:50.464Z,100005.06
2023-02-14T17:20:20.233Z,100006.19
2023-02-14T17:22:48.201Z,100010.38
2023-02-14T17:25:15.561Z,100007.22
2023-02-14T17:27:44.480Z,100012.84
2023-02-14T17:30:15.375Z,100014.66
2023-02-14T17:32:43.434Z,100016.31
2023-02-14T17:35:11.961Z,100021.03
2023-02-14T17:37:39.627Z,100013.03
2023-02-14T17:40:09.142Z,100015.16
2023-02-14T17:42:36.682Z,100011.72
2023-02-14T17:45:06.753Z,100009.53
2023-02-14T17:47:35.077Z,100018.59
2023-02-14T17:50:03.957Z,100019.91
2023-02-14T17:52:31.437Z,100021.09
2023-02-14T17:54:58.758Z,100014.44
2023-02-14T17:57:26.165Z,100018.28
2023-02-14T17:59:53.701Z,100010.63
2023-02-14T18:02:21.020Z,100008.16
2023-02-14T18:04:48.493Z,100017.66
2023-02-14T18:07:16.531Z,100019.50
2023-02-14T18:09:43.844Z,100012.06
2023-02-14T18:12:14.775Z,100013.91
2023-02-14T18:14:42.870Z,100009.13
2023-02-14T18:17:13.675Z,100011.69
2023-02-14T18:19:41.050Z,100013.25
2023-02-14T18:22:08.373Z,100005.31
2023-02-14T18:24:36.736Z,100012.94
2023-02-14T18:27:06.032Z,100011.13
2023-02-14T18:29:35.118Z,100009.25
2023-02-14T18:32:03.833Z,100011.34
2023-02-14T18:34:31.766Z,100011.03
2023-02-14T18:37:02.124Z,100000.97
2023-02-14T18:39:29.445Z,100004.94
2023-02-14T18:41:59.925Z,100001.81
2023-02-14T18:44:30.456Z,100001.41
2023-02-14T18:47:00.508Z,99995.06
2023-02-14T18:49:27.987Z,99999.53
2023-02-14T18:51:57.252Z,99985.25
2023-02-14T18:54:24.788Z,99986.53
2023-02-14T18:56:52.135Z,99984.53
2023-02-14T18:59:19.579Z,99989.41
2023-02-14T19:01:47.330Z,99978.22
2023-02-14T19:04:17.056Z,99983.13
2023-02-14T19:06:44.879Z,99976.81
2023-02-14T19:09:17.174Z,99980.78
2023-02-14T19:11:45.532Z,99981.06
2023-02-14T19:14:13.446Z,99979.56
2023-02-14T19:16:55.802Z,99983.81
2023-02-14T19:19:23.318Z,99984.31
2023-02-14T19:21:51.197Z,99984.22
2023-02-14T19:24:19.823Z,99977.31
2023-02-14T19:26:48.337Z,99979.34
2023-02-14T19:29:20.356Z,99963.97
2023-02-14T19:31:54.648Z,99960.84
2023-02-14T19:34:29.583Z,99964.06
2023-02-14T19:37:00.580Z,99966.44
2023-02-14T19:39:30.761Z,99970.34
2023-02-14T19:41:59.860Z,99969.25
2023-02-14T19:44:29.164Z,99972.34
2023-02-14T19:46:59.879Z,99973.69
2023-02-14T19:49:29.090Z,99965.47
2023-02-14T19:51:57.954Z,99964.47
2023-02-14T19:54:25.709Z,99966.59
2023-02-14T19:56:56.029Z,99957.97
2023-02-14T19:59:23.497Z,99960.47
2023-02-14T20:01:54.437Z,99968.09
2023-02-14T20:04:28.456Z,99959.50
2023-02-14T20:06:56.912Z,99959.50
2023-02-14T20:09:25.625Z,99960.31
2023-02-14T20:11:57.874Z,99961.53
2023-02-14T20:14:50.190Z,99956.63
2023-02-14T20:17:19.409Z,99962.47
2023-02-14T20:19:46.777Z,99953.81
2023-02-14T20:22:14.174Z,99953.69
2023-02-14T20:24:41.578Z,99948.22
2023-02-14T20:27:09.009Z,99962.84
2023-02-14T20:29:38.891Z,99961.69
2023-02-14T20:32:06.413Z,99961.44
2023-02-14T20:34:33.879Z,99966.44
2023-02-14T20:37:01.327Z,99957.19
2023-02-14T20:39:35.043Z,99957.28
2023-02-14T20:42:02.692Z,99962.19
2023-02-14T20:44:30.951Z,99963.34
2023-02-14T20:46:58.627Z,99964.13
2023-02-14T20:49:30.746Z,99962.72
2023-02-14T20:51:59.234Z,99963.69
2023-02-14T20:54:29.385Z,99958.78
2023-02-14T20:56:57.903Z,99961.16
2023-02-14T20:59:28.829Z,99955.59
2023-02-14T21:01:59.254Z,99957.50
2023-02-14T21:04:27.161Z,99954.66
2023-02-14T21:06:54.652Z,99937.84
2023-02-14T21:09:21.973Z,99940.47
2023-02-14T21:11:50.291Z,99943.97
2023-02-14T21:14:17.818Z,99942.91
2023-02-14T21:16:45.129Z,99941.63
2023-02-14T21:19:12.488Z,99940.03
